Time;durP1;ratioP1;P1;durP2;ratioP2;P2;SDS_P1;SDS_P2;PMS_P1;PMS_P2;Temp;Humidity;BMP_temperature;BMP_pressure;BME280_temperature;BME280_humidity;BME280_pressure;Samples;Min_cycle;Max_cycle;Signal;HPM_P1;HPM_P2
2023/12/23 00:01:50;;;;;;;8.20;4.10;;;;;;;-0.85;100.00;95111.41;110172;1241;69368;-65
2023/12/23 00:04:20;;;;;;;4.90;4.40;;;;;;;-0.85;100.00;95108.05;110160;1244;58894;-65
2023/12/23 00:06:51;;;;;;;5.50;4.40;;;;;;;-0.89;100.00;95114.41;110178;1243;58952;-63
2023/12/23 00:09:22;;;;;;;5.90;4.70;;;;;;;-0.90;100.00;95122.23;110170;1241;70604;-65
2023/12/23 00:11:52;;;;;;;6.00;4.50;;;;;;;-0.91;100.00;95128.46;110124;1241;69065;-64
2023/12/23 00:14:23;;;;;;;5.20;4.30;;;;;;;-0.95;100.00;95137.73;110153;1241;68448;-64
2023/12/23 00:16:54;;;;;;;4.70;4.10;;;;;;;-0.98;100.00;95127.99;110103;1243;58939;-64
2023/12/23 00:19:25;;;;;;;5.50;4.60;;;;;;;-1.00;100.00;95124.77;110094;1241;58866;-64
2023/12/23 00:21:56;;;;;;;6.20;4.50;;;;;;;-0.99;100.00;95123.98;110129;1243;70637;-64
2023/12/23 00:24:29;;;;;;;4.80;4.00;;;;;;;-0.96;100.00;95129.61;110105;1244;69717;-64
2023/12/23 00:26:58;;;;;;;6.00;4.10;;;;;;;-0.94;100.00;95125.36;110113;1241;70072;-64
2023/12/23 00:29:29;;;;;;;;;;;;;;;-0.91;100.00;95126.04;110127;1241;58895;-64
2023/12/23 00:31:59;;;;;;;4.40;3.60;;;;;;;-0.89;100.00;95129.10;109942;1241;58941;-64
2023/12/23 00:34:32;;;;;;;5.40;3.20;;;;;;;-0.85;100.00;95130.63;109981;1243;70824;-64
2023/12/23 00:37:02;;;;;;;4.90;3.50;;;;;;;-0.81;100.00;95133.58;110137;1244;69211;-64
2023/12/23 00:39:34;;;;;;;3.80;3.30;;;;;;;-0.74;100.00;95124.94;110066;1241;69569;-64
2023/12/23 00:42:07;;;;;;;5.40;3.90;;;;;;;-0.69;100.00;95126.16;110087;1244;58910;-64
2023/12/23 00:44:38;;;;;;;4.20;3.80;;;;;;;-0.63;100.00;95120.62;109993;1246;59371;-64
2023/12/23 00:47:09;;;;;;;4.60;3.20;;;;;;;-0.54;100.00;95124.61;110096;1241;70661;-64
2023/12/23 00:49:39;;;;;;;;;;;;;;;-0.48;100.00;95112.50;110072;1243;68767;-64
2023/12/23 00:52:09;;;;;;;4.20;3.70;;;;;;;-0.42;100.00;95119.25;110091;1243;68633;-64
2023/12/23 00:54:41;;;;;;;4.10;3.20;;;;;;;-0.37;100.00;95128.83;110107;1244;58894;-64
2023/12/23 00:57:13;;;;;;;3.20;2.90;;;;;;;-0.30;100.00;95134.91;110137;1243;58883;-64
2023/12/23 00:59:47;;;;;;;3.90;3.20;;;;;;;-0.25;100.00;95136.44;110134;1243;70588;-64
2023/12/23 01:02:17;;;;;;;6.70;3.60;;;;;;;-0.19;100.00;95134.70;110231;1241;68547;-63
2023/12/23 01:04:49;;;;;;;5.00;3.20;;;;;;;-0.16;100.00;95122.67;110190;1241;69281;-63
2023/12/23 01:07:21;;;;;;;5.30;2.90;;;;;;;-0.16;100.00;95123.35;110227;1242;58972;-65
2023/12/23 01:09:51;;;;;;;;;;;;;;;-0.13;100.00;95124.49;110182;1239;58894;-63
2023/12/23 01:12:21;;;;;;;3.10;2.60;;;;;;;-0.11;100.00;95108.77;110267;1240;70532;-64
2023/12/23 01:14:57;;;;;;;4.20;2.90;;;;;;;-0.09;100.00;95107.44;110232;1241;69263;-63
2023/12/23 01:17:29;;;;;;;4.80;2.60;;;;;;;-0.03;100.00;95118.39;110279;1241;68569;-63
2023/12/23 01:20:02;;;;;;;3.80;2.70;;;;;;;-0.03;100.00;95118.17;110241;1240;58927;-63
2023/12/23 01:22:33;;;;;;;3.20;2.40;;;;;;;0.03;100.00;95111.13;110115;1244;58928;-64
2023/12/23 01:25:03;;;;;;;5.30;3.20;;;;;;;-0.01;100.00;95099.56;110301;1241;69008;-64
2023/12/23 01:27:33;;;;;;;4.20;2.90;;;;;;;0.05;100.00;95088.88;110161;1240;69854;-63
2023/12/23 01:30:05;;;;;;;4.60;3.20;;;;;;;0.08;100.00;95092.58;110242;1241;69378;-66
2023/12/23 01:32:37;;;;;;;6.00;3.60;;;;;;;0.10;100.00;95095.39;110303;1240;58958;-64
2023/12/23 01:35:09;;;;;;;5.30;3.60;;;;;;;0.05;100.00;95080.01;110377;1241;58877;-64
2023/12/23 01:37:46;;;;;;;6.60;4.00;;;;;;;0.02;100.00;95067.50;110277;1241;69020;-64
2023/12/23 01:40:18;;;;;;;6.60;5.20;;;;;;;-0.05;100.00;95063.85;110269;1241;68482;-64
2023/12/23 01:42:49;;;;;;;8.70;5.20;;;;;;;-0.12;100.00;95049.09;110269;1244;68131;-64
2023/12/23 01:45:24;;;;;;;6.10;5.00;;;;;;;-0.18;100.00;95036.19;110157;1241;58935;-64
2023/12/23 01:47:57;;;;;;;6.10;5.10;;;;;;;-0.26;100.00;95029.69;110329;1240;59121;-64
2023/12/23 01:50:29;;;;;;;8.60;5.70;;;;;;;-0.32;100.00;95025.66;110319;1240;69899;-64
2023/12/23 01:53:02;;;;;;;8.50;5.60;;;;;;;-0.40;100.00;95021.40;110308;1241;68388;-64
2023/12/23 01:55:36;;;;;;;7.00;5.10;;;;;;;-0.49;100.00;95021.66;110259;1239;68593;-64
2023/12/23 01:58:08;;;;;;;6.40;4.90;;;;;;;-0.52;100.00;95015.52;110136;1244;58964;-64
2023/12/23 02:00:45;;;;;;;6.90;5.20;;;;;;;-0.54;100.00;95018.91;110290;1241;58919;-64
2023/12/23 02:03:17;;;;;;;5.80;4.10;;;;;;;-0.50;100.00;95013.73;110203;1240;70496;-64
2023/12/23 02:05:51;;;;;;;4.50;3.70;;;;;;;-0.47;100.00;95001.36;110260;1241;69179;-65
2023/12/23 02:08:23;;;;;;;3.80;2.80;;;;;;;-0.45;100.00;94995.39;110177;1242;69589;-64
2023/12/23 02:11:19;;;;;;;4.30;3.20;;;;;;;-0.39;100.00;94989.15;110147;1244;58945;-64
2023/12/23 02:14:08;;;;;;;4.30;3.10;;;;;;;-0.35;100.00;94985.65;110303;1240;58902;-66
2023/12/23 02:16:40;;;;;;;6.00;3.40;;;;;;;-0.34;100.00;94993.58;109954;1241;69842;-66
2023/12/23 02:19:10;;;;;;;4.20;3.00;;;;;;;-0.31;100.00;95013.75;110313;1240;68552;-66
2023/12/23 02:21:40;;;;;;;4.30;3.10;;;;;;;-0.27;100.00;95004.46;110486;1241;69748;-63
2023/12/23 02:24:10;;;;;;;6.70;3.30;;;;;;;-0.22;100.00;95009.20;110269;1239;58974;-63
2023/12/23 02:26:43;;;;;;;4.60;3.10;;;;;;;-0.15;100.00;95008.05;110334;1240;58947;-64
2023/12/23 02:29:14;;;;;;;5.00;3.10;;;;;;;-0.10;100.00;95008.92;110390;1240;71163;-64
2023/12/23 02:31:45;;;;;;;3.30;3.00;;;;;;;-0.09;100.00;95014.63;110294;1239;68357;-64
2023/12/23 02:34:18;;;;;;;4.10;3.20;;;;;;;-0.05;100.00;95020.08;110164;1241;68727;-64
2023/12/23 02:36:48;;;;;;;4.40;2.90;;;;;;;-0.02;100.00;95017.43;110307;1241;58855;-64
2023/12/23 02:39:17;;;;;;;4.80;3.50;;;;;;;0.05;100.00;95013.37;110289;1241;58928;-64
2023/12/23 02:41:48;;;;;;;5.80;3.80;;;;;;;0.08;100.00;94992.80;110294;1239;68760;-63
2023/12/23 02:44:20;;;;;;;4.40;4.00;;;;;;;0.07;100.00;94985.13;110354;1239;68618;-64
2023/12/23 02:46:52;;;;;;;5.00;3.90;;;;;;;0.12;100.00;94968.20;110232;1240;69291;-64
2023/12/23 02:49:25;;;;;;;5.00;4.20;;;;;;;0.12;100.00;94958.39;110339;1239;58938;-65
2023/12/23 02:51:57;;;;;;;5.70;4.20;;;;;;;0.19;100.00;94964.91;110282;1241;58869;-64
2023/12/23 02:54:27;;;;;;;4.40;4.00;;;;;;;0.17;100.00;94960.08;110269;1241;70794;-65
2023/12/23 02:57:02;;;;;;;4.20;3.80;;;;;;;0.14;100.00;94972.98;110281;1241;69685;-63
2023/12/23 02:59:34;;;;;;;5.50;3.90;;;;;;;0.20;100.00;94972.39;110238;1241;67801;-63
2023/12/23 03:02:04;;;;;;;4.70;4.20;;;;;;;0.21;100.00;94973.88;110254;1241;58862;-63
2023/12/23 03:04:34;;;;;;;3.70;3.30;;;;;;;0.14;100.00;94974.85;110166;1242;58922;-63
2023/12/23 03:07:05;;;;;;;4.40;3.10;;;;;;;0.20;100.00;94985.55;110262;1240;69674;-64
2023/12/23 03:09:37;;;;;;;4.30;3.30;;;;;;;0.20;100.00;94998.42;110250;1241;70022;-63
2023/12/23 03:12:07;;;;;;;3.40;3.00;;;;;;;0.19;100.00;94996.11;110228;1240;69345;-63
2023/12/23 03:14:40;;;;;;;3.80;3.40;;;;;;;0.17;100.00;94998.34;110245;1239;58929;-63
2023/12/23 03:17:10;;;;;;;3.80;3.20;;;;;;;0.24;100.00;94995.61;110263;1240;58932;-63
2023/12/23 03:19:44;;;;;;;4.20;3.70;;;;;;;0.27;100.00;94995.91;110263;1241;70576;-64
2023/12/23 03:22:14;;;;;;;3.10;2.80;;;;;;;0.30;100.00;95002.05;110123;1240;68385;-63
2023/12/23 03:24:47;;;;;;;4.40;3.60;;;;;;;0.25;100.00;95008.36;110262;1240;68727;-63
2023/12/23 03:27:21;;;;;;;3.30;2.80;;;;;;;0.29;100.00;95016.66;110285;1239;58934;-63
2023/12/23 03:29:51;;;;;;;3.60;3.10;;;;;;;0.29;100.00;95019.95;110275;1241;58823;-63
2023/12/23 03:32:22;;;;;;;3.90;2.90;;;;;;;0.33;100.00;95023.72;110113;1241;69741;-63
2023/12/23 03:34:58;;;;;;;3.50;3.20;;;;;;;0.37;100.00;95021.04;110257;1239;69250;-63
2023/12/23 03:37:39;;;;;;;3.50;3.20;;;;;;;0.37;100.00;95004.45;110218;1242;69386;-64
2023/12/23 03:40:11;;;;;;;4.20;3.70;;;;;;;0.41;100.00;95006.36;110338;1241;58900;-63
2023/12/23 03:42:41;;;;;;;4.10;3.70;;;;;;;0.37;100.00;94999.11;110253;1240;58869;-63
2023/12/23 03:45:10;;;;;;;3.70;3.40;;;;;;;0.36;100.00;94984.50;110291;1241;70428;-63
2023/12/23 03:47:45;;;;;;;3.70;3.10;;;;;;;0.29;100.00;94995.25;110295;1241;69336;-63
2023/12/23 03:50:16;;;;;;;4.20;3.70;;;;;;;0.25;100.00;94980.48;110254;1240;69289;-63
2023/12/23 03:52:46;;;;;;;4.20;3.60;;;;;;;0.20;100.00;94992.80;110306;1240;58925;-63
2023/12/23 03:55:17;;;;;;;4.60;3.70;;;;;;;0.16;100.00;95006.95;110329;1241;58869;-63
2023/12/23 03:57:49;;;;;;;4.20;3.50;;;;;;;0.14;100.00;95010.81;110353;1241;70597;-63
2023/12/23 04:00:23;;;;;;;5.20;3.80;;;;;;;0.14;100.00;95017.18;110173;1241;69823;-64
2023/12/23 04:02:54;;;;;;;4.60;3.70;;;;;;;0.15;100.00;95017.66;110110;1240;68580;-64
2023/12/23 04:05:23;;;;;;;;;;;;;;;0.14;100.00;95015.80;110178;1243;58903;-63
2023/12/23 04:07:57;;;;;;;4.00;3.50;;;;;;;0.17;100.00;95013.23;110170;1242;58850;-64
2023/12/23 04:10:28;;;;;;;3.60;3.20;;;;;;;0.15;100.00;95024.18;110149;1242;70469;-63
2023/12/23 04:13:00;;;;;;;3.40;3.10;;;;;;;0.17;100.00;95023.63;109866;1241;68494;-63
2023/12/23 04:15:32;;;;;;;4.70;3.40;;;;;;;0.20;100.00;95022.63;110132;1241;68973;-63
2023/12/23 04:18:04;;;;;;;4.00;3.10;;;;;;;0.19;100.00;95021.44;110105;1244;58942;-63
2023/12/23 04:20:42;;;;;;;3.60;3.30;;;;;;;0.20;100.00;95010.77;110196;1240;59288;-63
2023/12/23 04:23:12;;;;;;;3.50;3.20;;;;;;;0.22;100.00;94996.21;109937;1240;69946;-65
2023/12/23 04:25:45;;;;;;;3.80;3.40;;;;;;;0.21;100.00;94992.38;110119;1243;69245;-65
2023/12/23 04:28:15;;;;;;;4.50;3.30;;;;;;;0.18;100.00;94993.92;110123;1243;69900;-65
2023/12/23 04:30:45;;;;;;;3.30;2.90;;;;;;;0.16;100.00;95006.79;110187;1243;58955;-64
2023/12/23 04:33:17;;;;;;;3.50;2.70;;;;;;;0.11;100.00;95015.54;110160;1244;58848;-64
2023/12/23 04:35:50;;;;;;;3.50;3.10;;;;;;;0.07;100.00;95015.27;110228;1244;70604;-64
2023/12/23 04:38:23;;;;;;;3.80;3.10;;;;;;;0.14;100.00;95006.08;110174;1240;68490;-64
2023/12/23 04:40:55;;;;;;;2.80;2.20;;;;;;;0.13;100.00;94996.55;110109;1244;69264;-64
2023/12/23 04:43:25;;;;;;;3.00;2.70;;;;;;;0.13;100.00;94994.48;110142;1241;58945;-64
2023/12/23 04:45:56;;;;;;;;;;;;;;;0.14;100.00;94996.50;110166;1240;58949;-63
2023/12/23 04:48:27;;;;;;;2.50;1.90;;;;;;;0.16;100.00;94995.30;110187;1242;70522;-65
2023/12/23 04:50:58;;;;;;;2.60;2.20;;;;;;;0.22;100.00;95004.46;110178;1240;69854;-63
2023/12/23 04:53:28;;;;;;;2.50;2.00;;;;;;;0.28;100.00;95008.54;110106;1242;68540;-63
2023/12/23 04:56:00;;;;;;;1.90;1.60;;;;;;;0.32;100.00;95004.81;110172;1244;58900;-63
2023/12/23 04:58:29;;;;;;;2.50;1.80;;;;;;;0.35;100.00;95021.02;110192;1241;58935;-63
2023/12/23 05:00:59;;;;;;;1.80;1.60;;;;;;;0.36;100.00;95028.15;110193;1240;71178;-65
2023/12/23 05:03:33;;;;;;;2.00;1.70;;;;;;;0.36;100.00;95029.84;110248;1245;69264;-63
2023/12/23 05:06:03;;;;;;;1.50;1.40;;;;;;;0.22;100.00;95031.89;110265;1241;69134;-63
2023/12/23 05:08:34;;;;;;;2.10;1.60;;;;;;;0.21;100.00;95032.94;110223;1242;58899;-63
2023/12/23 05:11:04;;;;;;;1.80;1.60;;;;;;;0.13;100.00;95038.16;110240;1242;58918;-63
2023/12/23 05:13:33;;;;;;;;;;;;;;;0.11;100.00;95038.27;110303;1241;70903;-63
2023/12/23 05:16:03;;;;;;;2.10;1.70;;;;;;;0.05;100.00;95029.11;110134;1241;69091;-63
2023/12/23 05:18:34;;;;;;;2.20;1.40;;;;;;;0.03;100.00;95036.99;110181;1244;69208;-63
2023/12/23 05:21:06;;;;;;;2.20;1.60;;;;;;;-0.07;100.00;95043.96;110342;1241;58905;-64
2023/12/23 05:23:36;;;;;;;1.70;1.60;;;;;;;-0.11;100.00;95040.45;110285;1242;58928;-64
2023/12/23 05:26:08;;;;;;;2.00;1.60;;;;;;;-0.11;100.00;95044.45;110348;1241;69830;-65
2023/12/23 05:28:39;;;;;;;2.20;1.60;;;;;;;-0.15;100.00;95026.58;110275;1242;67525;-65
2023/12/23 05:31:09;;;;;;;2.10;1.60;;;;;;;-0.20;100.00;95025.52;110182;1241;68391;-65
2023/12/23 05:33:39;;;;;;;3.30;2.30;;;;;;;-0.20;100.00;95020.23;110294;1242;58953;-65
2023/12/23 05:36:10;;;;;;;1.80;1.60;;;;;;;-0.21;100.00;95025.92;110238;1247;58877;-65
2023/12/23 05:38:40;;;;;;;2.50;2.10;;;;;;;-0.16;100.00;95032.27;110305;1240;70638;-64
2023/12/23 05:41:10;;;;;;;2.80;2.00;;;;;;;-0.21;100.00;95033.45;110309;1242;69806;-65
2023/12/23 05:43:40;;;;;;;3.00;2.20;;;;;;;-0.23;100.00;95033.12;110246;1242;67610;-65
2023/12/23 05:46:10;;;;;;;2.70;2.40;;;;;;;-0.24;100.00;95037.95;110267;1241;58900;-65
2023/12/23 05:48:40;;;;;;;2.40;2.00;;;;;;;-0.25;100.00;95031.19;110303;1242;59285;-64
2023/12/23 05:51:10;;;;;;;;;;;;;;;-0.28;100.00;95037.72;110347;1242;70748;-63
2023/12/23 05:53:41;;;;;;;2.90;2.30;;;;;;;-0.33;100.00;95043.04;110225;1241;69095;-64
2023/12/23 05:56:11;;;;;;;;;;;;;;;-0.34;100.00;95035.48;110301;1242;68487;-66
2023/12/23 05:58:41;;;;;;;3.20;2.10;;;;;;;-0.32;100.00;95036.47;110287;1241;58833;-64
2023/12/23 06:01:11;;;;;;;3.20;2.30;;;;;;;-0.28;100.00;95033.23;110329;1239;58923;-63
2023/12/23 06:03:41;;;;;;;3.60;2.40;;;;;;;-0.29;100.00;95034.54;110247;1241;71193;-64
2023/12/23 06:06:11;;;;;;;3.10;2.80;;;;;;;-0.29;100.00;95037.13;110272;1241;69571;-64
2023/12/23 06:08:42;;;;;;;2.90;2.50;;;;;;;-0.31;100.00;95050.95;110296;1241;68603;-64
2023/12/23 06:11:12;;;;;;;;;;;;;;;-0.32;100.00;95056.13;110334;1241;58940;-64
2023/12/23 06:13:41;;;;;;;3.10;2.60;;;;;;;-0.39;100.00;95058.34;110321;1241;58890;-64
2023/12/23 06:16:11;;;;;;;2.60;2.10;;;;;;;-0.43;100.00;95054.47;110307;1241;70598;-64
2023/12/23 06:18:40;;;;;;;3.00;2.20;;;;;;;-0.35;100.00;95066.58;110319;1241;69841;-64
2023/12/23 06:21:10;;;;;;;4.40;3.20;;;;;;;-0.36;100.00;95070.09;110289;1241;68692;-64
2023/12/23 06:23:39;;;;;;;3.20;2.80;;;;;;;-0.32;100.00;95076.34;110317;1241;58948;-63
2023/12/23 06:26:11;;;;;;;4.50;2.70;;;;;;;-0.37;100.00;95085.19;110302;1241;58883;-64
2023/12/23 06:28:43;;;;;;;4.10;3.10;;;;;;;-0.42;100.00;95099.59;110324;1241;70711;-63
2023/12/23 06:31:13;;;;;;;3.80;3.10;;;;;;;-0.43;100.00;95102.91;110287;1241;69242;-64
2023/12/23 06:33:42;;;;;;;3.60;2.80;;;;;;;-0.44;100.00;95108.77;110287;1241;69884;-63
2023/12/23 06:36:12;;;;;;;3.80;2.90;;;;;;;-0.48;100.00;95112.45;110282;1241;58938;-64
2023/12/23 06:38:41;;;;;;;2.60;2.40;;;;;;;-0.39;100.00;95123.51;110098;1244;58909;-63
2023/12/23 06:41:14;;;;;;;2.30;2.10;;;;;;;-0.48;100.00;95127.50;110291;1240;70442;-62
2023/12/23 06:43:44;;;;;;;3.80;2.60;;;;;;;-0.48;100.00;95135.94;110279;1239;69223;-63
2023/12/23 06:46:21;;;;;;;3.80;3.10;;;;;;;-0.46;100.00;95144.88;110257;1248;69856;-64
2023/12/23 06:48:52;;;;;;;3.50;2.90;;;;;;;-0.41;100.00;95156.88;110298;1241;58915;-63
2023/12/23 06:51:21;;;;;;;5.00;3.50;;;;;;;-0.32;100.00;95167.40;110301;1239;58935;-64
2023/12/23 06:53:51;;;;;;;;;;;;;;;-0.28;100.00;95162.29;110241;1241;70601;-63
2023/12/23 06:56:22;;;;;;;3.60;2.70;;;;;;;-0.31;100.00;95168.50;110501;1240;68550;-63
2023/12/23 06:58:51;;;;;;;4.70;3.00;;;;;;;-0.25;100.00;95176.80;110420;1241;69873;-63
2023/12/23 07:01:21;;;;;;;3.30;3.00;;;;;;;-0.17;100.00;95180.23;110429;1240;58938;-65
2023/12/23 07:03:50;;;;;;;3.20;2.30;;;;;;;-0.11;100.00;95183.25;110415;1241;58912;-64
2023/12/23 07:06:20;;;;;;;4.40;3.20;;;;;;;-0.08;100.00;95187.20;110293;1240;70563;-64
2023/12/23 07:08:49;;;;;;;3.40;2.90;;;;;;;-0.09;100.00;95193.80;110233;1242;69849;-64
2023/12/23 07:11:19;;;;;;;3.80;3.00;;;;;;;-0.01;100.00;95188.30;110295;1239;70071;-65
2023/12/23 07:13:50;;;;;;;4.00;3.00;;;;;;;0.03;100.00;95196.06;110291;1241;59380;-64
2023/12/23 07:16:21;;;;;;;4.30;2.70;;;;;;;0.07;100.00;95201.46;110385;1241;58944;-65
2023/12/23 07:18:50;;;;;;;4.70;2.90;;;;;;;0.12;100.00;95209.31;110249;1240;71180;-63
2023/12/23 07:21:20;;;;;;;2.60;2.40;;;;;;;0.14;100.00;95215.55;110259;1245;68583;-64
2023/12/23 07:23:50;;;;;;;2.70;2.40;;;;;;;0.18;100.00;95221.57;110310;1241;69300;-64
2023/12/23 07:26:21;;;;;;;3.30;2.10;;;;;;;0.25;100.00;95219.97;110301;1240;58875;-64
2023/12/23 07:28:52;;;;;;;2.80;2.30;;;;;;;0.27;100.00;95216.73;110460;1239;58873;-64
2023/12/23 07:31:22;;;;;;;2.50;1.80;;;;;;;0.33;100.00;95210.36;110353;1239;70492;-63
2023/12/23 07:33:51;;;;;;;3.30;2.60;;;;;;;0.39;100.00;95211.66;110262;1241;68246;-63
2023/12/23 07:36:21;;;;;;;3.00;2.10;;;;;;;0.61;100.00;95216.31;110269;1240;69704;-64
2023/12/23 07:38:50;;;;;;;2.90;2.10;;;;;;;0.95;100.00;95220.80;110265;1241;58885;-64
2023/12/23 07:41:20;;;;;;;2.20;1.80;;;;;;;1.53;100.00;95221.03;110125;1244;58901;-63
2023/12/23 07:43:50;;;;;;;2.20;1.90;;;;;;;1.86;100.00;95220.68;110278;1241;70077;-63
2023/12/23 07:46:20;;;;;;;2.00;1.80;;;;;;;2.53;100.00;95221.71;110265;1241;69236;-63
2023/12/23 07:48:50;;;;;;;2.00;1.80;;;;;;;3.19;100.00;95226.98;110232;1241;69274;-64
2023/12/23 07:51:23;;;;;;;2.00;1.80;;;;;;;3.82;100.00;95230.09;110261;1241;58882;-63
2023/12/23 07:53:57;;;;;;;1.90;1.50;;;;;;;3.87;100.00;95236.39;110265;1242;58932;-63
2023/12/23 07:56:33;;;;;;;2.60;1.50;;;;;;;3.27;100.00;95239.06;110289;1239;70613;-64
2023/12/23 07:59:06;;;;;;;2.40;1.50;;;;;;;3.22;100.00;95251.71;110300;1241;69240;-64
2023/12/23 08:01:45;;;;;;;2.10;1.50;;;;;;;2.81;100.00;95264.16;110250;1240;69249;-64
2023/12/23 08:04:24;;;;;;;2.10;1.70;;;;;;;2.42;100.00;95274.45;110262;1241;58890;-64
2023/12/23 08:06:59;;;;;;;3.10;1.80;;;;;;;2.47;100.00;95283.75;110258;1241;58874;-64
2023/12/23 08:09:41;;;;;;;2.20;1.70;;;;;;;2.28;100.00;95293.58;110201;1239;70702;-64
2023/12/23 08:12:24;;;;;;;2.00;1.90;;;;;;;2.03;100.00;95305.03;110235;1241;69681;-64
2023/12/23 08:14:58;;;;;;;1.80;1.70;;;;;;;1.81;100.00;95320.03;110253;1241;68561;-64
2023/12/23 08:17:37;;;;;;;2.00;1.70;;;;;;;1.64;100.00;95331.89;110246;1240;58919;-63
2023/12/23 08:20:13;;;;;;;1.80;1.60;;;;;;;1.41;100.00;95334.49;110272;1241;58928;-64
2023/12/23 08:22:52;;;;;;;2.50;1.70;;;;;;;1.26;100.00;95341.15;110297;1240;70439;-64
2023/12/23 08:25:25;;;;;;;1.90;1.70;;;;;;;1.24;100.00;95341.10;110282;1241;69318;-63
2023/12/23 08:27:56;;;;;;;2.90;1.50;;;;;;;1.13;100.00;95345.86;110265;1241;69762;-64
2023/12/23 08:30:26;;;;;;;2.10;1.60;;;;;;;1.07;100.00;95345.77;110296;1240;58884;-64
2023/12/23 08:32:56;;;;;;;;;;;;;;;1.02;100.00;95344.05;110288;1241;58818;-64
2023/12/23 08:35:26;;;;;;;1.90;1.70;;;;;;;1.06;100.00;95345.27;110299;1240;71122;-63
2023/12/23 08:37:56;;;;;;;1.60;1.50;;;;;;;1.15;100.00;95346.04;110271;1241;68579;-66
2023/12/23 08:40:26;;;;;;;2.70;2.10;;;;;;;1.20;100.00;95346.76;110266;1241;69764;-63
2023/12/23 08:42:56;;;;;;;1.80;1.60;;;;;;;1.38;100.00;95346.23;110228;1241;58891;-63
2023/12/23 08:45:26;;;;;;;;;;;;;;;1.52;100.00;95342.46;110267;1241;58886;-63
2023/12/23 08:47:56;;;;;;;3.00;2.20;;;;;;;1.67;100.00;95339.05;110239;1241;69675;-64
2023/12/23 08:50:26;;;;;;;1.90;1.70;;;;;;;1.92;100.00;95341.04;110272;1241;69263;-66
2023/12/23 08:52:56;;;;;;;3.30;2.20;;;;;;;2.02;100.00;95343.71;110284;1240;69344;-64
2023/12/23 08:55:26;;;;;;;2.10;1.80;;;;;;;1.96;100.00;95346.72;110272;1241;58922;-66
2023/12/23 08:57:58;;;;;;;2.20;1.60;;;;;;;2.02;100.00;95349.38;110285;1241;58934;-64
2023/12/23 09:00:28;;;;;;;2.60;2.10;;;;;;;2.20;100.00;95340.25;110265;1241;70613;-64
2023/12/23 09:02:58;;;;;;;2.70;1.80;;;;;;;2.52;100.00;95342.33;110233;1241;69877;-63
2023/12/23 09:05:28;;;;;;;;;;;;;;;2.74;100.00;95340.88;110264;1241;69318;-63
2023/12/23 09:07:58;;;;;;;1.80;1.50;;;;;;;2.78;99.97;95339.02;110315;1247;58895;-64
2023/12/23 09:10:28;;;;;;;1.50;1.40;;;;;;;2.69;99.92;95339.05;110312;1241;58869;-64
2023/12/23 09:12:58;;;;;;;1.50;1.40;;;;;;;2.71;99.81;95340.10;110319;1241;69916;-64
2023/12/23 09:15:27;;;;;;;1.90;1.70;;;;;;;2.64;100.00;95343.52;110240;1241;68444;-65
2023/12/23 09:17:56;;;;;;;2.00;1.60;;;;;;;2.24;100.00;95344.23;110411;1240;69208;-65
2023/12/23 09:20:28;;;;;;;2.20;1.70;;;;;;;2.31;99.86;95340.67;110263;1241;58913;-63
2023/12/23 09:23:01;;;;;;;1.70;1.60;;;;;;;2.31;99.62;95339.73;110371;1241;58845;-63
2023/12/23 09:25:30;;;;;;;2.00;1.80;;;;;;;2.74;99.15;95339.17;110283;1241;71072;-63
2023/12/23 09:28:00;;;;;;;2.30;1.80;;;;;;;3.23;97.65;95339.61;110247;1241;68326;-62
2023/12/23 09:30:29;;;;;;;1.90;1.60;;;;;;;3.48;94.03;95334.89;110254;1245;69846;-62
2023/12/23 09:32:58;;;;;;;1.60;1.50;;;;;;;4.16;91.67;95330.55;110350;1241;58851;-64
2023/12/23 09:35:28;;;;;;;2.20;1.70;;;;;;;5.26;86.50;95333.73;110161;1244;58879;-63
2023/12/23 09:37:58;;;;;;;2.20;1.50;;;;;;;5.82;83.54;95331.42;110362;1241;69634;-63
2023/12/23 09:40:27;;;;;;;;;;;;;;;6.07;81.19;95333.08;110348;1240;69512;-64
2023/12/23 09:42:59;;;;;;;1.80;1.50;;;;;;;5.87;80.30;95339.92;110344;1240;69890;-62
2023/12/23 09:45:29;;;;;;;1.50;1.40;;;;;;;5.63;81.24;95354.82;110277;1247;58879;-62
2023/12/23 09:47:58;;;;;;;1.70;1.60;;;;;;;4.83;81.69;95347.87;110318;1241;58956;-63
2023/12/23 09:50:27;;;;;;;1.80;1.50;;;;;;;4.71;84.11;95339.55;110338;1239;70814;-63
2023/12/23 09:53:02;;;;;;;1.50;1.40;;;;;;;4.36;84.55;95344.51;110341;1241;69831;-62
2023/12/23 09:55:33;;;;;;;1.80;1.20;;;;;;;4.31;85.91;95345.44;110266;1240;68385;-63
2023/12/23 09:58:02;;;;;;;;;;;;;;;3.71;87.35;95353.92;110302;1241;58873;-62
2023/12/23 10:00:32;;;;;;;2.30;1.50;;;;;;;3.62;89.02;95362.96;110274;1241;58869;-63
2023/12/23 10:03:06;;;;;;;2.20;1.60;;;;;;;2.90;95.05;95369.80;110309;1239;71532;-63
2023/12/23 10:05:45;;;;;;;1.80;1.60;;;;;;;2.66;99.24;95375.86;110235;1243;69243;-63
2023/12/23 10:08:14;;;;;;;2.00;1.80;;;;;;;2.37;100.00;95377.11;109991;1246;69300;-62
2023/12/23 10:10:46;;;;;;;2.20;1.90;;;;;;;2.27;100.00;95382.35;110199;1240;58930;-63
2023/12/23 10:13:16;;;;;;;2.30;1.70;;;;;;;2.04;100.00;95389.78;110330;1241;58943;-63
2023/12/23 10:15:45;;;;;;;1.90;1.70;;;;;;;1.89;100.00;95390.58;110333;1241;69938;-65
2023/12/23 10:18:15;;;;;;;1.70;1.60;;;;;;;1.97;100.00;95385.17;110178;1244;69617;-63
2023/12/23 10:20:45;;;;;;;2.30;1.90;;;;;;;1.53;100.00;95395.99;110320;1241;68536;-65
2023/12/23 10:23:16;;;;;;;2.90;1.70;;;;;;;1.58;100.00;95392.50;110205;1243;58890;-65
2023/12/23 10:25:45;;;;;;;2.00;1.80;;;;;;;1.43;100.00;95391.17;110318;1241;58929;-63
2023/12/23 10:28:19;;;;;;;2.10;1.60;;;;;;;1.48;100.00;95393.77;110315;1241;70626;-64
2023/12/23 10:30:49;;;;;;;2.80;1.80;;;;;;;1.45;100.00;95397.35;110255;1241;69920;-64
2023/12/23 10:33:21;;;;;;;;;;;;;;;1.56;100.00;95398.34;110305;1239;69266;-63
2023/12/23 10:35:51;;;;;;;1.80;1.60;;;;;;;1.61;100.00;95399.38;110352;1239;58953;-64
2023/12/23 10:38:21;;;;;;;2.40;1.50;;;;;;;1.49;100.00;95391.95;110394;1239;58927;-64
2023/12/23 10:40:53;;;;;;;;;;;;;;;1.52;100.00;95390.39;110357;1239;70591;-64
2023/12/23 10:43:24;;;;;;;1.70;1.20;;;;;;;1.40;100.00;95402.69;110262;1241;68590;-64
2023/12/23 10:45:56;;;;;;;1.50;1.30;;;;;;;1.45;100.00;95410.94;110293;1240;69301;-65
2023/12/23 10:48:28;;;;;;;1.70;1.50;;;;;;;1.45;100.00;95411.96;110303;1240;58916;-64
2023/12/23 10:50:59;;;;;;;1.80;1.30;;;;;;;1.54;100.00;95417.69;110335;1241;58908;-64
2023/12/23 10:53:30;;;;;;;1.70;1.40;;;;;;;1.64;100.00;95426.48;110320;1241;70533;-64
2023/12/23 10:56:00;;;;;;;;;;;;;;;1.70;100.00;95427.41;110320;1241;69847;-64
2023/12/23 10:58:31;;;;;;;1.30;1.20;;;;;;;1.64;100.00;95432.50;110237;1241;69282;-64
2023/12/23 11:01:00;;;;;;;;;;;;;;;1.74;100.00;95431.98;110288;1242;58941;-64
2023/12/23 11:03:33;;;;;;;1.70;1.30;;;;;;;1.62;100.00;95430.86;110321;1241;58875;-64
2023/12/23 11:06:05;;;;;;;1.90;1.50;;;;;;;1.45;100.00;95433.09;110239;1244;71133;-63
2023/12/23 11:08:37;;;;;;;1.60;1.40;;;;;;;1.24;100.00;95437.06;110400;1241;69817;-63
2023/12/23 11:11:06;;;;;;;1.30;1.20;;;;;;;1.21;100.00;95456.11;110241;1243;69879;-63
2023/12/23 11:13:37;;;;;;;1.90;1.60;;;;;;;1.09;100.00;95469.15;110308;1241;58983;-64
2023/12/23 11:16:10;;;;;;;1.40;1.30;;;;;;;0.82;100.00;95486.48;110175;1246;59001;-63
2023/12/23 11:18:39;;;;;;;0.80;0.80;;;;;;;0.55;100.00;95489.44;110309;1239;71238;-63
2023/12/23 11:21:17;;;;;;;0.90;0.90;;;;;;;0.13;100.00;95493.77;110277;1241;68393;-62
2023/12/23 11:23:46;;;;;;;0.90;0.90;;;;;;;-0.13;100.00;95500.33;110184;1244;69850;-62
2023/12/23 11:26:37;;;;;;;1.20;1.10;;;;;;;-0.22;100.00;95505.55;110340;1242;58925;-62
2023/12/23 11:29:18;;;;;;;1.10;1.00;;;;;;;-0.33;100.00;95503.30;110346;1241;58917;-63
2023/12/23 11:31:47;;;;;;;0.80;0.80;;;;;;;-0.59;100.00;95479.34;110303;1242;71245;-63
2023/12/23 11:34:19;;;;;;;1.30;1.10;;;;;;;-0.78;100.00;95485.40;110435;1240;69053;-63
2023/12/23 11:36:52;;;;;;;1.10;1.00;;;;;;;-0.71;100.00;95489.95;110262;1241;69315;-63
2023/12/23 11:39:23;;;;;;;2.00;1.60;;;;;;;-0.73;100.00;95490.23;110288;1242;59215;-63
2023/12/23 11:41:53;;;;;;;1.30;1.10;;;;;;;-0.66;100.00;95487.10;110338;1241;58919;-63
2023/12/23 11:44:25;;;;;;;1.20;1.00;;;;;;;-0.73;100.00;95489.93;110349;1241;69723;-63
2023/12/23 11:46:55;;;;;;;2.30;1.40;;;;;;;-0.67;100.00;95495.67;110309;1239;69084;-63